Time;durP1;ratioP1;P1;durP2;ratioP2;P2;SDS_P1;SDS_P2;PMS_P1;PMS_P2;Temp;Humidity;BMP_temperature;BMP_pressure;BME280_temperature;BME280_humidity;BME280_pressure;Samples;Min_cycle;Max_cycle;Signal;HPM_P1;HPM_P2
2023/01/23 00:01:17;;;;;;;20.02;7.22;;;;;;;1.52;100.00;101781.69;10372541;28;20132;-76
2023/01/23 00:06:18;;;;;;;18.25;6.95;;;;;;;2.24;100.00;101903.94;10371906;28;20038;-74
2023/01/23 00:11:22;;;;;;;19.20;7.00;;;;;;;2.21;100.00;101902.31;10371522;28;20072;-75
2023/01/23 00:16:24;;;;;;;24.73;8.02;;;;;;;2.23;100.00;101894.41;10374019;28;20405;-76
2023/01/23 00:21:27;;;;;;;16.98;7.18;;;;;;;2.15;100.00;101889.53;10379799;28;20034;-76
2023/01/23 00:26:31;;;;;;;23.48;7.05;;;;;;;2.21;100.00;101891.84;10379816;28;20045;-75
2023/01/23 00:31:37;;;;;;;22.38;7.90;;;;;;;1.74;100.00;101820.81;10378824;28;20561;-76
2023/01/23 00:36:41;;;;;;;26.85;8.02;;;;;;;2.17;100.00;101903.41;10379776;28;20042;-76
2023/01/23 00:41:41;;;;;;;20.02;7.72;;;;;;;1.89;100.00;101845.44;10379465;28;20045;-76
2023/01/23 00:46:42;;;;;;;21.63;8.25;;;;;;;2.12;100.00;101892.28;10379875;28;20393;-76
2023/01/23 00:51:44;;;;;;;19.75;7.03;;;;;;;1.62;100.00;101810.94;10377569;28;20558;-76
2023/01/23 00:56:44;;;;;;;32.40;8.35;;;;;;;1.73;100.00;101827.81;10379555;28;20038;-77
2023/01/23 01:01:45;;;;;;;19.38;7.63;;;;;;;2.23;100.00;101904.88;10378754;28;20057;-76
2023/01/23 01:06:46;;;;;;;19.85;7.97;;;;;;;2.28;100.00;101903.75;10378670;28;20053;-75
2023/01/23 01:11:46;;;;;;;22.05;7.70;;;;;;;1.90;100.00;101834.00;10377389;28;20489;-75
2023/01/23 01:16:47;;;;;;;27.40;8.75;;;;;;;2.23;100.00;101886.53;10377764;28;20061;-75
2023/01/23 01:21:48;;;;;;;18.45;7.53;;;;;;;2.41;100.00;101918.84;10378423;28;20053;-76
2023/01/23 01:26:49;;;;;;;17.55;7.80;;;;;;;1.66;100.00;101774.03;10378180;28;20072;-76
2023/01/23 01:31:49;;;;;;;23.10;8.00;;;;;;;2.29;100.00;101888.84;10377429;28;20041;-76
2023/01/23 01:36:51;;;;;;;17.70;7.55;;;;;;;2.41;100.00;101924.09;10378222;28;20045;-76
2023/01/23 01:41:51;;;;;;;22.60;8.07;;;;;;;2.24;100.00;101914.44;10376041;28;20133;-76
2023/01/23 01:46:52;;;;;;;15.52;7.53;;;;;;;2.10;100.00;101909.91;10376417;28;20524;-76
2023/01/23 01:51:58;;;;;;;26.95;8.35;;;;;;;1.83;100.00;101891.13;10376718;28;20152;-76
2023/01/23 01:57:01;;;;;;;24.80;8.23;;;;;;;1.52;100.00;101852.41;10376317;28;20048;-76
2023/01/23 02:02:09;;;;;;;21.03;8.03;;;;;;;1.83;100.00;101910.31;10376285;28;20038;-76
2023/01/23 02:07:19;;;;;;;16.27;8.15;;;;;;;1.76;100.00;101905.41;10375653;28;20038;-76
2023/01/23 02:12:19;;;;;;;18.67;8.20;;;;;;;1.75;100.00;101916.81;10374387;28;20046;-76
2023/01/23 02:17:20;;;;;;;16.55;8.10;;;;;;;1.03;100.00;101784.03;10374532;28;20456;-76
2023/01/23 02:22:54;;;;;;;21.65;7.28;;;;;;;1.86;100.00;101922.41;10375720;28;20042;-76
2023/01/23 02:27:55;;;;;;;21.10;8.00;;;;;;;1.43;100.00;101871.19;10374318;28;20050;-77
2023/01/23 02:33:31;;;;;;;26.80;8.15;;;;;;;1.73;100.00;101916.88;10374830;28;20045;-76
2023/01/23 02:38:36;;;;;;;22.77;8.13;;;;;;;1.58;100.00;101912.38;10374336;28;20059;-76
2023/01/23 02:43:37;;;;;;;21.17;8.80;;;;;;;1.62;100.00;101927.03;10374590;28;20611;-74
2023/01/23 02:48:38;;;;;;;14.43;7.82;;;;;;;1.16;100.00;101840.13;10373173;28;20106;-74
2023/01/23 02:53:41;;;;;;;18.45;7.97;;;;;;;1.57;100.00;101897.59;10374046;28;20046;-74
2023/01/23 03:04:05;;;;;;;18.35;7.57;;;;;;;1.73;100.00;101921.28;10373661;28;20080;-79
2023/01/23 03:09:11;;;;;;;19.02;8.52;;;;;;;1.83;100.00;101928.66;10351009;28;20058;-75
2023/01/23 03:14:16;;;;;;;26.45;8.63;;;;;;;1.84;100.00;101934.72;10369335;28;20041;-78
2023/01/23 03:19:22;;;;;;;24.80;7.95;;;;;;;1.29;100.00;101843.88;10373629;28;20054;-79
2023/01/23 03:24:23;;;;;;;16.83;8.38;;;;;;;1.92;100.00;101952.72;10371844;28;20042;-79
2023/01/23 03:34:44;;;;;;;17.23;7.75;;;;;;;1.85;100.00;101956.53;10372885;28;20034;-72
2023/01/23 03:45:06;;;;;;;16.05;8.02;;;;;;;1.70;100.00;101940.59;10373378;28;20096;-74
2023/01/23 03:50:07;;;;;;;20.23;8.35;;;;;;;1.82;100.00;101965.38;10371860;28;20046;-73
2023/01/23 03:55:08;;;;;;;20.92;8.32;;;;;;;1.32;100.00;101893.50;10372262;28;20048;-74
2023/01/23 04:00:12;;;;;;;16.70;7.57;;;;;;;1.92;100.00;101995.50;10372596;28;20050;-74
2023/01/23 04:05:13;;;;;;;19.60;8.33;;;;;;;1.94;100.00;101998.88;10372232;28;20050;-75
2023/01/23 04:10:14;;;;;;;25.20;8.35;;;;;;;1.78;100.00;101966.47;10371843;28;20049;-77
2023/01/23 04:15:15;;;;;;;22.40;7.78;;;;;;;1.80;100.00;101989.06;10372219;28;20045;-74
2023/01/23 04:20:16;;;;;;;21.10;8.00;;;;;;;1.83;100.00;101994.16;10372502;28;20065;-73
2023/01/23 04:25:17;;;;;;;20.73;7.80;;;;;;;1.61;100.00;101988.19;10365428;28;20116;-77
2023/01/23 04:30:18;;;;;;;17.73;7.45;;;;;;;1.56;100.00;101982.31;10371636;28;20038;-74
2023/01/23 04:35:19;;;;;;;18.73;8.10;;;;;;;1.63;100.00;102017.78;10366309;28;20490;-73
2023/01/23 04:40:19;;;;;;;21.65;7.57;;;;;;;1.64;100.00;102005.53;10369654;28;20049;-73
2023/01/23 04:45:20;;;;;;;20.38;7.03;;;;;;;1.69;100.00;102014.88;10355929;28;20057;-79
2023/01/23 04:50:21;;;;;;;15.48;6.32;;;;;;;1.72;100.00;102013.91;10367975;28;20513;-78
2023/01/23 04:55:22;;;;;;;18.30;6.78;;;;;;;1.70;100.00;102018.34;10371421;28;20038;-82
2023/01/23 05:00:23;;;;;;;18.50;6.78;;;;;;;1.76;100.00;102026.78;10369304;28;20034;-78
2023/01/23 05:05:24;;;;;;;22.50;7.10;;;;;;;1.55;100.00;101976.22;10372276;28;20052;-78
2023/01/23 05:10:25;;;;;;;15.88;6.57;;;;;;;1.49;100.00;101960.78;10377132;28;20049;-79
2023/01/23 05:15:26;;;;;;;19.17;6.90;;;;;;;1.40;100.00;101952.50;10378293;28;20176;-79
2023/01/23 05:20:27;;;;;;;19.55;6.97;;;;;;;2.04;100.00;102047.34;10378406;28;20077;-80
2023/01/23 05:25:28;;;;;;;18.52;6.72;;;;;;;1.93;100.00;102020.78;10377853;28;20458;-81
2023/01/23 05:30:28;;;;;;;16.85;6.45;;;;;;;2.18;100.00;102053.69;10378995;28;20053;-81
2023/01/23 05:35:30;;;;;;;24.92;6.28;;;;;;;2.16;100.00;102048.53;10377536;28;20042;-80
2023/01/23 05:40:31;;;;;;;12.20;6.00;;;;;;;1.82;100.00;101983.72;10376780;28;20398;-82
2023/01/23 05:45:33;;;;;;;18.58;6.20;;;;;;;2.40;100.00;102074.53;10376719;28;20041;-80
2023/01/23 05:50:34;;;;;;;23.10;5.90;;;;;;;2.43;100.00;102074.41;10377285;28;20042;-79
2023/01/23 05:55:37;;;;;;;14.13;5.80;;;;;;;2.27;100.00;102048.91;10376775;28;20045;-80
2023/01/23 06:00:38;;;;;;;21.13;6.23;;;;;;;2.25;100.00;102066.47;10376625;28;20418;-80
2023/01/23 06:05:40;;;;;;;21.00;6.10;;;;;;;2.24;100.00;102071.75;10376291;28;20049;-78
2023/01/23 06:10:41;;;;;;;18.20;6.32;;;;;;;2.33;100.00;102083.59;10376118;28;20410;-79
2023/01/23 06:15:42;;;;;;;12.95;6.10;;;;;;;2.45;100.00;102088.25;10375999;28;20072;-80
2023/01/23 06:20:43;;;;;;;12.50;5.90;;;;;;;2.42;100.00;102072.66;10375220;28;20058;-79
2023/01/23 06:25:43;;;;;;;14.45;5.90;;;;;;;2.66;100.00;102096.88;10375705;28;20042;-77
2023/01/23 06:30:44;;;;;;;16.58;6.25;;;;;;;2.62;100.00;102080.44;10374877;28;20497;-80
2023/01/23 06:35:45;;;;;;;16.13;6.43;;;;;;;2.31;100.00;102025.16;10375076;28;20111;-79
2023/01/23 06:40:45;;;;;;;15.48;5.75;;;;;;;2.69;99.91;102070.50;10374480;28;20037;-80
2023/01/23 06:45:46;;;;;;;18.98;6.10;;;;;;;2.90;99.62;102102.72;10374384;28;20041;-79
2023/01/23 06:50:47;;;;;;;17.23;5.85;;;;;;;2.85;98.48;102074.09;10374506;28;20046;-79
2023/01/23 06:55:48;;;;;;;16.42;6.32;;;;;;;3.09;98.22;102095.63;10374286;28;20042;-82
2023/01/23 07:00:48;;;;;;;10.73;5.55;;;;;;;3.15;98.27;102076.94;10374795;28;20046;-80
2023/01/23 07:05:50;;;;;;;13.88;5.63;;;;;;;3.27;97.25;102088.59;10374768;28;20125;-81
2023/01/23 07:10:50;;;;;;;15.10;5.50;;;;;;;3.33;97.32;102090.09;10373865;28;20136;-81
2023/01/23 07:15:51;;;;;;;14.20;6.18;;;;;;;3.34;96.93;102073.38;10373985;28;20132;-82
2023/01/23 07:20:52;;;;;;;18.30;6.47;;;;;;;3.47;95.80;102106.00;10373946;28;20093;-82
2023/01/23 07:25:58;;;;;;;15.38;6.13;;;;;;;3.59;95.79;102101.84;10373816;28;20073;-80
2023/01/23 07:30:59;;;;;;;17.85;5.80;;;;;;;3.34;95.12;102033.97;10373280;28;20045;-81
2023/01/23 07:36:00;;;;;;;14.68;6.05;;;;;;;3.40;94.97;102020.53;10373587;28;20038;-82
2023/01/23 07:41:00;;;;;;;17.10;6.00;;;;;;;3.95;93.06;102108.72;10373214;28;20041;-78
2023/01/23 07:46:01;;;;;;;16.02;6.10;;;;;;;4.02;92.17;102102.22;10372247;28;20049;-79
2023/01/23 07:51:03;;;;;;;13.75;6.20;;;;;;;4.23;91.74;102095.81;10373031;28;20132;-80
2023/01/23 07:56:05;;;;;;;14.25;6.80;;;;;;;4.03;89.83;102025.03;10373286;28;20041;-81
2023/01/23 08:01:09;;;;;;;12.73;5.65;;;;;;;4.64;87.64;102097.94;10372899;28;20512;-81
2023/01/23 08:06:10;;;;;;;9.88;4.78;;;;;;;4.71;86.33;102101.91;10372246;28;20057;-79
2023/01/23 08:11:11;;;;;;;12.55;4.88;;;;;;;4.74;85.37;102070.13;10372490;28;20053;-80
2023/01/23 08:16:12;;;;;;;14.82;5.50;;;;;;;4.75;84.86;102069.19;10372762;28;20512;-79
2023/01/23 08:21:13;;;;;;;17.23;4.47;;;;;;;4.95;83.51;102094.38;10372559;28;20050;-79
2023/01/23 08:26:16;;;;;;;12.52;4.82;;;;;;;5.02;82.60;102090.44;10372535;28;20050;-78
2023/01/23 08:31:16;;;;;;;11.18;4.63;;;;;;;5.23;82.14;102100.66;10371189;28;20045;-78
2023/01/23 08:36:17;;;;;;;11.90;4.47;;;;;;;5.48;80.71;102098.28;10372603;28;20046;-79
2023/01/23 08:41:18;;;;;;;10.68;4.35;;;;;;;5.63;79.81;102074.56;10380110;28;20046;-78
2023/01/23 08:46:19;;;;;;;10.65;3.80;;;;;;;5.53;78.88;101979.38;10379802;28;20046;-78
2023/01/23 08:51:20;;;;;;;11.52;4.25;;;;;;;6.10;77.51;102036.50;10379541;28;20083;-79
2023/01/23 08:56:22;;;;;;;9.60;3.10;;;;;;;6.22;76.63;102072.66;10378578;28;20533;-79
2023/01/23 09:01:25;;;;;;;12.10;3.80;;;;;;;6.10;77.01;102042.63;10378373;28;20038;-79
2023/01/23 09:06:26;;;;;;;7.25;3.78;;;;;;;5.87;77.20;102049.31;10378189;28;20092;-77
2023/01/23 09:11:26;;;;;;;10.40;3.70;;;;;;;6.08;78.38;102057.72;10378520;28;20065;-79
2023/01/23 09:16:27;;;;;;;12.10;3.92;;;;;;;6.35;76.44;101954.81;10377605;28;20050;-80
2023/01/23 09:21:28;;;;;;;8.52;3.92;;;;;;;7.22;75.18;102052.91;10378505;28;20062;-79
2023/01/23 09:26:28;;;;;;;10.98;3.28;;;;;;;6.90;75.64;102020.72;10377866;28;20046;-80
2023/01/23 09:31:29;;;;;;;7.13;3.33;;;;;;;6.69;76.35;101954.34;10378237;28;20136;-79
2023/01/23 09:36:30;;;;;;;14.43;3.60;;;;;;;7.84;75.08;102029.19;10377620;28;20049;-79
2023/01/23 09:41:31;;;;;;;15.75;4.07;;;;;;;7.84;73.54;101968.34;10376898;28;20042;-77
2023/01/23 09:46:40;;;;;;;15.75;3.55;;;;;;;6.75;69.82;101853.56;10376661;28;20042;-80
2023/01/23 09:52:02;;;;;;;13.77;3.95;;;;;;;7.91;69.00;102013.72;10375076;28;20108;-76
2023/01/23 09:57:18;;;;;;;14.82;3.10;;;;;;;8.07;66.77;101993.13;10376355;28;20041;-80
2023/01/23 10:02:20;;;;;;;13.43;2.90;;;;;;;8.29;65.02;101970.41;10377291;28;20052;-81
2023/01/23 10:07:50;;;;;;;10.38;2.92;;;;;;;8.32;64.27;101978.97;10375906;28;20037;-78
2023/01/23 10:13:09;;;;;;;15.48;3.70;;;;;;;8.05;62.53;101886.53;10375083;28;20552;-76
2023/01/23 10:18:34;;;;;;;15.50;3.15;;;;;;;8.43;61.16;101925.22;10376047;28;20149;-81
2023/01/23 10:23:37;;;;;;;12.80;3.42;;;;;;;8.89;62.75;101988.81;10375935;28;20065;-77
2023/01/23 10:28:39;;;;;;;14.05;3.05;;;;;;;8.30;61.73;101904.06;10375733;28;20038;-81
2023/01/23 10:34:02;;;;;;;11.90;3.50;;;;;;;7.81;61.20;101823.06;10375745;28;20080;-79
2023/01/23 10:39:13;;;;;;;11.97;3.57;;;;;;;8.69;60.19;101961.19;10374742;28;20509;-82
2023/01/23 10:44:16;;;;;;;13.48;3.35;;;;;;;8.85;60.09;101962.66;10375437;28;20104;-81
2023/01/23 10:49:35;;;;;;;15.27;3.00;;;;;;;9.05;60.08;101977.03;10374359;28;20037;-79
2023/01/23 10:54:45;;;;;;;19.92;3.78;;;;;;;8.58;59.41;101880.81;10374565;28;20050;-84
2023/01/23 11:00:03;;;;;;;16.15;3.17;;;;;;;8.98;58.76;101976.69;10373756;28;20088;-79
2023/01/23 11:05:49;;;;;;;13.77;3.13;;;;;;;9.13;57.88;101982.59;10373558;28;20049;-77
2023/01/23 11:10:50;;;;;;;16.60;3.78;;;;;;;8.96;58.30;101983.88;10372744;28;20053;-79
2023/01/23 11:15:51;;;;;;;10.48;3.45;;;;;;;8.43;58.67;101882.84;10373498;28;20042;-77
2023/01/23 11:20:56;;;;;;;15.82;3.03;;;;;;;8.47;58.24;101913.44;10374302;28;20058;-79
2023/01/23 11:25:57;;;;;;;16.05;3.60;;;;;;;8.81;58.61;101970.00;10372975;28;20042;-80
2023/01/23 11:31:17;;;;;;;18.58;4.28;;;;;;;9.00;58.33;101993.28;10373147;28;20104;-79
2023/01/23 11:36:18;;;;;;;22.40;3.50;;;;;;;8.96;58.63;101991.84;10372455;28;20057;-78
2023/01/23 11:41:29;;;;;;;19.20;3.15;;;;;;;8.94;58.04;101993.75;10372923;28;20054;-77
2023/01/23 11:46:57;;;;;;;18.92;3.78;;;;;;;8.98;57.77;101992.59;10372761;28;20038;-77
2023/01/23 11:52:32;;;;;;;12.02;3.20;;;;;;;8.75;57.91;102006.72;10372566;28;20048;-78
2023/01/23 11:58:13;;;;;;;11.65;3.28;;;;;;;8.67;58.79;101997.56;10372020;28;20034;-78
2023/01/23 12:03:46;;;;;;;20.20;3.88;;;;;;;8.61;59.12;101992.69;10371992;28;20136;-76
2023/01/23 12:09:14;;;;;;;19.10;3.87;;;;;;;8.66;59.00;101995.84;10371907;28;20398;-80
2023/01/23 12:14:26;;;;;;;25.48;4.75;;;;;;;8.51;59.37;101996.16;10378117;28;20046;-77
2023/01/23 12:19:45;;;;;;;16.85;3.72;;;;;;;8.51;59.67;102006.75;10380828;28;20080;-79
2023/01/23 12:25:03;;;;;;;39.78;6.72;;;;;;;8.36;61.71;102016.66;10380466;28;20403;-79
2023/01/23 12:30:53;;;;;;;38.88;6.55;;;;;;;8.01;63.22;102014.75;10379603;28;20042;-75
2023/01/23 12:36:09;;;;;;;44.05;6.80;;;;;;;7.30;65.26;101964.22;10375291;28;20053;-75
2023/01/23 12:41:36;;;;;;;37.33;6.50;;;;;;;7.52;67.27;102047.31;10378949;28;20049;-75
2023/01/23 12:46:55;;;;;;;39.05;6.90;;;;;;;7.02;69.01;102018.09;10379239;28;20082;-73
2023/01/23 12:52:02;;;;;;;38.42;6.60;;;;;;;6.35;70.44;101956.59;10376758;28;20046;-76
2023/01/23 12:57:07;;;;;;;35.40;6.65;;;;;;;6.51;71.92;102062.88;10379829;28;20049;-74
2023/01/23 13:02:32;;;;;;;37.08;7.05;;;;;;;6.16;73.78;102066.00;10377461;28;20136;-74
2023/01/23 13:08:02;;;;;;;31.73;6.43;;;;;;;6.00;74.59;102075.81;10379453;28;20061;-75
2023/01/23 13:13:03;;;;;;;42.58;6.80;;;;;;;5.71;74.39;102077.56;10384490;28;20580;-75
2023/01/23 13:18:05;;;;;;;29.75;6.05;;;;;;;4.85;75.47;101979.16;10376927;28;20132;-76
2023/01/23 13:23:32;;;;;;;38.97;6.18;;;;;;;5.28;77.73;102100.41;10374802;28;20037;-75
2023/01/23 13:28:50;;;;;;;38.50;6.40;;;;;;;4.40;79.37;102013.31;10354637;28;20414;-73
2023/01/23 13:33:51;;;;;;;31.80;6.63;;;;;;;3.99;78.73;101994.59;10362391;28;20117;-74
2023/01/23 13:39:18;;;;;;;28.17;6.45;;;;;;;4.35;82.15;102105.66;10339484;28;20069;-74
2023/01/23 13:44:22;;;;;;;28.70;6.05;;;;;;;4.01;82.57;102090.00;10354121;28;20054;-75
2023/01/23 13:49:50;;;;;;;39.75;6.18;;;;;;;3.89;83.91;102118.66;10356119;28;20053;-75
2023/01/23 14:00:19;;;;;;;33.67;6.15;;;;;;;3.41;85.86;102127.28;10376760;28;20061;-74
2023/01/23 14:05:27;;;;;;;25.25;6.32;;;;;;;2.65;87.24;102058.47;10354906;28;20490;-74
2023/01/23 14:10:31;;;;;;;31.13;6.72;;;;;;;3.04;87.97;102162.44;10366396;28;20049;-74
2023/01/23 14:20:53;;;;;;;24.75;5.90;;;;;;;2.66;88.61;102155.50;10376624;28;20057;-77
2023/01/23 14:25:54;;;;;;;25.50;6.07;;;;;;;2.43;88.50;102151.31;10375672;28;20041;-77
2023/01/23 14:31:04;;;;;;;37.30;6.72;;;;;;;1.90;90.57;102094.28;10375475;28;20041;-76
2023/01/23 14:36:05;;;;;;;24.63;6.13;;;;;;;1.99;91.36;102143.69;10374108;28;20128;-77
2023/01/23 14:41:06;;;;;;;22.40;6.28;;;;;;;2.01;91.13;102183.78;10375161;28;20048;-77
2023/01/23 14:46:18;;;;;;;27.83;6.70;;;;;;;1.80;93.10;102180.34;10360180;28;20038;-75
2023/01/23 14:51:26;;;;;;;27.83;7.40;;;;;;;1.68;93.81;102180.88;10348395;28;20528;-75
2023/01/23 14:56:38;;;;;;;27.13;6.38;;;;;;;1.70;94.21;102193.88;10364148;28;20044;-76
2023/01/23 15:01:39;;;;;;;27.77;7.28;;;;;;;1.03;94.33;102108.53;10348879;28;20132;-75
2023/01/23 15:06:41;;;;;;;22.88;6.03;;;;;;;1.53;95.02;102215.56;10348965;28;20060;-77
2023/01/23 15:11:43;;;;;;;29.65;6.68;;;;;;;0.78;96.16;102119.13;10332598;28;20421;-70
2023/01/23 15:16:45;;;;;;;29.75;7.43;;;;;;;0.48;95.84;102068.91;10349812;28;20084;-74
2023/01/23 15:21:46;;;;;;;27.85;5.40;;;;;;;1.23;95.47;102212.44;10344129;28;20136;-74
2023/01/23 15:26:56;;;;;;;25.73;5.93;;;;;;;1.30;96.36;102243.53;10347745;28;20080;-73
2023/01/23 15:31:58;;;;;;;26.90;6.78;;;;;;;1.04;97.52;102204.47;10349519;28;20053;-72
2023/01/23 15:37:05;;;;;;;19.50;6.93;;;;;;;1.14;97.55;102242.47;10334251;28;20048;-76
2023/01/23 15:42:12;;;;;;;16.88;6.15;;;;;;;0.82;98.92;102204.47;10332903;28;20161;-76
2023/01/23 15:47:13;;;;;;;25.58;6.45;;;;;;;1.01;98.41;102251.69;10332574;28;20042;-76
2023/01/23 15:52:24;;;;;;;28.27;6.90;;;;;;;0.36;98.69;102138.19;10331241;28;20060;-75
2023/01/23 15:57:25;;;;;;;22.92;6.40;;;;;;;1.02;98.97;102269.13;10331850;28;20042;-77
2023/01/23 16:02:26;;;;;;;19.20;6.50;;;;;;;0.83;100.00;102254.09;10331980;28;20038;-77
2023/01/23 16:07:33;;;;;;;26.38;6.15;;;;;;;1.00;98.74;102270.94;10331367;28;20089;-75
2023/01/23 16:12:37;;;;;;;18.08;6.38;;;;;;;0.84;99.51;102263.66;10331763;28;20038;-76
2023/01/23 16:17:38;;;;;;;;;;;;;;;1.01;100.00;102277.84;10332562;28;20065;-77
2023/01/23 16:22:39;;;;;;;23.48;6.85;;;;;;;0.68;99.98;102233.75;10331847;28;19928;-78
2023/01/23 16:27:39;;;;;;;22.08;6.80;;;;;;;0.42;100.00;102178.06;10331518;28;20074;-77
2023/01/23 16:32:40;;;;;;;25.38;6.30;;;;;;;1.19;100.00;102286.75;10331163;28;20133;-77
2023/01/23 16:37:43;;;;;;;13.85;6.72;;;;;;;1.29;100.00;102281.13;10332108;28;20047;-78
2023/01/23 16:42:46;;;;;;;16.52;5.82;;;;;;;1.46;100.00;102296.13;10329869;28;20042;-79
2023/01/23 16:47:48;;;;;;;18.30;6.40;;;;;;;1.30;100.00;102253.16;10331071;28;20039;-78
2023/01/23 16:53:00;;;;;;;19.85;6.75;;;;;;;1.49;100.00;102280.31;10361716;28;20045;-79
2023/01/23 16:58:04;;;;;;;16.17;6.13;;;;;;;1.42;98.99;102257.91;10360249;28;20052;-77
2023/01/23 17:03:08;;;;;;;22.98;6.60;;;;;;;1.21;99.14;102216.88;10351949;28;20568;-77
2023/01/23 17:08:16;;;;;;;21.15;6.25;;;;;;;1.36;99.41;102232.81;10352492;28;20049;-78
2023/01/23 17:13:20;;;;;;;22.63;6.72;;;;;;;1.85;98.58;102308.53;10353387;28;20041;-77
2023/01/23 17:18:32;;;;;;;30.47;7.20;;;;;;;1.83;98.21;102277.16;10351938;28;20050;-78
2023/01/23 17:23:33;;;;;;;21.58;6.53;;;;;;;1.92;97.57;102301.28;10354021;28;20049;-77
2023/01/23 17:28:34;;;;;;;17.95;5.60;;;;;;;1.95;97.71;102299.38;10353137;28;20041;-77
2023/01/23 17:33:34;;;;;;;23.85;5.93;;;;;;;1.53;96.82;102233.91;10352221;28;20046;-78
2023/01/23 17:38:38;;;;;;;20.10;6.43;;;;;;;1.99;96.85;102311.44;10352906;28;20038;-73
2023/01/23 17:43:39;;;;;;;17.23;5.53;;;;;;;2.06;96.26;102309.41;10331576;28;20537;-73
2023/01/23 17:48:40;;;;;;;25.98;6.22;;;;;;;1.50;96.22;102213.09;10346700;28;20091;-73
2023/01/23 17:53:41;;;;;;;22.77;5.60;;;;;;;2.07;95.56;102312.91;10351624;28;20593;-74
2023/01/23 17:58:42;;;;;;;15.45;5.97;;;;;;;2.00;95.59;102286.06;10349511;28;20037;-74
2023/01/23 18:03:43;;;;;;;32.33;5.57;;;;;;;2.11;95.51;102299.59;10349877;28;20042;-73
2023/01/23 18:08:44;;;;;;;19.98;5.55;;;;;;;1.58;94.93;102205.72;10355598;28;20046;-74
2023/01/23 18:14:29;;;;;;;18.15;6.38;;;;;;;2.18;94.65;102300.16;10355126;28;20053;-74
2023/01/23 18:19:30;;;;;;;21.75;5.60;;;;;;;1.63;94.40;102219.50;10390825;28;20054;-75
2023/01/23 18:24:32;;;;;;;18.95;5.72;;;;;;;2.08;94.24;102302.34;10375658;28;20665;-75
2023/01/23 18:29:32;;;;;;;18.75;6.03;;;;;;;2.10;93.82;102300.50;10374891;28;20039;-76
2023/01/23 18:34:51;;;;;;;17.10;6.53;;;;;;;1.98;93.24;102267.81;10374555;28;20041;-75
2023/01/23 18:39:59;;;;;;;17.85;5.53;;;;;;;2.02;92.60;102276.38;10376040;28;20490;-76
2023/01/23 18:45:05;;;;;;;15.55;5.55;;;;;;;2.15;92.57;102295.06;10375089;28;20065;-75
2023/01/23 18:50:06;;;;;;;14.60;5.18;;;;;;;2.13;91.98;102289.03;10374681;28;20038;-75
2023/01/23 18:55:20;;;;;;;19.65;5.38;;;;;;;1.99;92.20;102279.13;10374627;28;20409;-75
2023/01/23 19:00:27;;;;;;;17.85;5.47;;;;;;;2.11;91.80;102288.25;10373914;28;20038;-75
2023/01/23 19:05:31;;;;;;;20.10;5.30;;;;;;;2.15;91.55;102300.28;10365780;28;20046;-75
2023/01/23 19:10:43;;;;;;;16.40;5.30;;;;;;;1.92;91.30;102272.47;10374080;28;20522;-74
2023/01/23 19:15:52;;;;;;;17.60;5.15;;;;;;;2.08;91.12;102302.34;10374866;28;20279;-74
2023/01/23 19:21:21;;;;;;;24.25;5.80;;;;;;;1.80;91.93;102306.13;10374316;28;20155;-75
2023/01/23 19:26:24;;;;;;;25.25;6.95;;;;;;;1.48;92.29;102290.84;10373493;28;20100;-76
2023/01/23 19:31:27;;;;;;;18.88;6.32;;;;;;;1.33;93.45;102321.97;10373671;28;20050;-76
2023/01/23 19:36:30;;;;;;;19.60;6.75;;;;;;;1.10;94.05;102303.69;10373171;28;20038;-79
2023/01/23 19:41:37;;;;;;;25.45;6.88;;;;;;;0.62;94.66;102226.13;10373153;28;20042;-75
2023/01/23 19:46:38;;;;;;;19.35;7.35;;;;;;;0.87;94.82;102286.25;10373027;28;20042;-75
2023/01/23 19:51:39;;;;;;;28.23;7.07;;;;;;;0.95;95.45;102297.25;10372565;28;20497;-74
2023/01/23 19:56:41;;;;;;;21.85;6.38;;;;;;;0.89;95.73;102305.34;10373033;28;20046;-75
2023/01/23 20:01:48;;;;;;;19.95;5.80;;;;;;;0.97;95.64;102299.84;10371784;28;20034;-75
2023/01/23 20:06:50;;;;;;;26.92;6.40;;;;;;;0.66;95.98;102243.44;10372408;28;20038;-75
2023/01/23 20:11:51;;;;;;;18.80;6.15;;;;;;;0.66;96.56;102273.06;10372242;28;20046;-74
2023/01/23 20:16:52;;;;;;;17.88;6.45;;;;;;;0.66;97.11;102290.53;10371672;28;20040;-74
2023/01/23 20:21:53;;;;;;;18.27;6.75;;;;;;;0.56;96.77;102274.28;10372568;28;20046;-75
2023/01/23 20:26:53;;;;;;;15.30;5.95;;;;;;;0.69;97.19;102293.03;10371411;28;20060;-75
2023/01/23 20:31:54;;;;;;;20.08;5.68;;;;;;;0.11;96.67;102199.25;10372086;28;20528;-75
2023/01/23 20:36:55;;;;;;;20.27;6.03;;;;;;;0.26;96.69;102208.28;10380262;28;20409;-74
2023/01/23 20:41:56;;;;;;;15.70;5.63;;;;;;;0.81;96.36;102307.41;10380139;28;20037;-74
2023/01/23 20:46:56;;;;;;;16.90;6.25;;;;;;;0.62;96.04;102281.91;10379773;28;20429;-75
2023/01/23 20:53:28;;;;;;;14.45;5.28;;;;;;;0.60;96.65;102272.41;10378239;28;20056;-75
2023/01/23 20:57:18;;;;;;;13.30;5.28;;;;;;;0.57;95.85;102259.44;10379049;28;20038;-75
2023/01/23 21:02:21;;;;;;;14.98;6.03;;;;;;;0.83;96.20;102303.81;10377424;28;20501;-75
2023/01/23 21:07:24;;;;;;;16.50;5.97;;;;;;;0.80;96.34;102295.22;10378486;28;20041;-74
2023/01/23 21:12:25;;;;;;;15.10;5.60;;;;;;;0.19;96.48;102198.97;10378891;28;20046;-75
2023/01/23 21:17:26;;;;;;;12.23;5.53;;;;;;;0.66;96.22;102280.06;10377982;28;20416;-75
2023/01/23 21:22:27;;;;;;;15.23;6.07;;;;;;;0.57;96.44;102264.66;10378714;28;20057;-75
2023/01/23 21:27:28;;;;;;;13.45;5.70;;;;;;;0.09;96.24;102193.22;10378406;28;20465;-74
2023/01/23 21:32:28;;;;;;;19.65;5.28;;;;;;;0.73;96.12;102299.00;10378828;28;20141;-75
2023/01/23 21:37:29;;;;;;;17.27;5.07;;;;;;;0.22;96.37;102223.22;10378254;28;20145;-75
2023/01/23 21:42:30;;;;;;;15.13;5.53;;;;;;;0.56;96.53;102287.38;10377627;28;20045;-75
2023/01/23 21:47:30;;;;;;;13.32;5.07;;;;;;;0.62;96.20;102302.81;10377171;28;20132;-75
2023/01/23 21:52:31;;;;;;;11.73;5.60;;;;;;;0.65;96.03;102292.25;10377208;28;20440;-75
2023/01/23 21:57:32;;;;;;;18.63;5.65;;;;;;;0.57;96.18;102288.22;10377019;28;20406;-75
2023/01/23 22:02:33;;;;;;;12.63;4.85;;;;;;;0.48;96.68;102305.13;10376183;28;20041;-75
2023/01/23 22:07:33;;;;;;;13.32;5.35;;;;;;;0.38;96.23;102275.81;10376183;28;20038;-74
2023/01/23 22:12:34;;;;;;;16.25;5.72;;;;;;;0.54;95.90;102298.78;10375972;28;20045;-74
2023/01/23 22:17:35;;;;;;;18.88;6.32;;;;;;;0.41;96.56;102288.78;10376122;28;20100;-75
2023/01/23 22:22:35;;;;;;;14.57;5.40;;;;;;;-0.24;95.97;102185.69;10374465;28;20502;-75
2023/01/23 22:27:36;;;;;;;14.27;5.55;;;;;;;0.34;95.98;102282.06;10375281;28;20184;-75
2023/01/23 22:32:37;;;;;;;18.23;5.45;;;;;;;0.39;96.63;102290.59;10375552;28;20536;-75
2023/01/23 22:37:40;;;;;;;10.63;4.93;;;;;;;-0.18;96.42;102202.91;10375349;28;20054;-75
2023/01/23 22:42:40;;;;;;;14.85;5.07;;;;;;;0.44;96.66;102308.72;10373575;28;20034;-75
2023/01/23 22:47:41;;;;;;;18.20;5.60;;;;;;;0.20;96.96;102279.91;10373811;28;20093;-75
2023/01/23 22:52:42;;;;;;;11.93;4.60;;;;;;;0.37;97.38;102313.31;10374751;28;20049;-75
2023/01/23 22:57:43;;;;;;;13.98;5.25;;;;;;;-0.18;97.01;102215.97;10372306;28;20398;-75
2023/01/23 23:02:43;;;;;;;22.45;6.28;;;;;;;0.47;96.75;102310.38;10373948;28;20045;-75
2023/01/23 23:07:44;;;;;;;20.98;5.53;;;;;;;0.36;96.83;102303.78;10374278;28;20493;-75
2023/01/23 23:12:45;;;;;;;17.05;5.50;;;;;;;-0.20;97.06;102204.69;10374047;28;20046;-75
2023/01/23 23:17:46;;;;;;;15.63;5.75;;;;;;;0.30;96.58;102290.94;10373519;28;20077;-75
2023/01/23 23:22:46;;;;;;;11.98;5.10;;;;;;;0.37;96.97;102312.47;10374285;28;20563;-75
2023/01/23 23:27:47;;;;;;;15.98;6.00;;;;;;;0.21;98.09;102323.47;10373551;28;20046;-75
2023/01/23 23:32:48;;;;;;;13.23;5.63;;;;;;;-0.33;98.66;102225.16;10372910;28;20124;-75
2023/01/23 23:37:48;;;;;;;14.18;5.82;;;;;;;0.11;99.02;102301.16;10373170;28;20124;-75
2023/01/23 23:42:49;;;;;;;12.70;5.60;;;;;;;-0.30;98.14;102232.03;10373591;28;20413;-75